sensor_id;sensor_type;location;lat;lon;timestamp;P1;P2;P0
55518;PMS5003;41724;51.176;-0.708;2022-08-01T00:02:22;8;8;
55518;PMS5003;41724;51.176;-0.708;2022-08-01T00:04:49;7;7;
55518;PMS5003;41724;51.176;-0.708;2022-08-01T00:07:17;6;6;
55518;PMS5003;41724;51.176;-0.708;2022-08-01T00:09:44;7;7;
55518;PMS5003;41724;51.176;-0.708;2022-08-01T00:12:11;7;7;
55518;PMS5003;41724;51.176;-0.708;2022-08-01T00:14:40;6;6;
55518;PMS5003;41724;51.176;-0.708;2022-08-01T00:17:07;7;6;
55518;PMS5003;41724;51.176;-0.708;2022-08-01T00:19:35;8;8;
55518;PMS5003;41724;51.176;-0.708;2022-08-01T00:22:02;8;8;
55518;PMS5003;41724;51.176;-0.708;2022-08-01T00:24:29;9;9;
55518;PMS5003;41724;51.176;-0.708;2022-08-01T00:26:56;8;8;
55518;PMS5003;41724;51.176;-0.708;2022-08-01T00:29:24;8;8;
55518;PMS5003;41724;51.176;-0.708;2022-08-01T00:31:51;8;8;
55518;PMS5003;41724;51.176;-0.708;2022-08-01T00:34:18;7;7;
55518;PMS5003;41724;51.176;-0.708;2022-08-01T00:36:45;8;8;
55518;PMS5003;41724;51.176;-0.708;2022-08-01T00:39:12;7;7;
55518;PMS5003;41724;51.176;-0.708;2022-08-01T00:41:40;7;7;
55518;PMS5003;41724;51.176;-0.708;2022-08-01T00:44:07;7;7;
55518;PMS5003;41724;51.176;-0.708;2022-08-01T00:46:34;7;7;
55518;PMS5003;41724;51.176;-0.708;2022-08-01T00:49:02;8;8;
55518;PMS5003;41724;51.176;-0.708;2022-08-01T00:51:30;7;7;
55518;PMS5003;41724;51.176;-0.708;2022-08-01T00:53:57;7;7;
55518;PMS5003;41724;51.176;-0.708;2022-08-01T00:56:25;7;7;
55518;PMS5003;41724;51.176;-0.708;2022-08-01T00:58:54;7;7;
55518;PMS5003;41724;51.176;-0.708;2022-08-01T01:01:22;7;7;
55518;PMS5003;41724;51.176;-0.708;2022-08-01T01:03:49;8;8;
55518;PMS5003;41724;51.176;-0.708;2022-08-01T01:06:23;10;9;
55518;PMS5003;41724;51.176;-0.708;2022-08-01T01:09:02;7;6;
55518;PMS5003;41724;51.176;-0.708;2022-08-01T01:11:43;6;5;
55518;PMS5003;41724;51.176;-0.708;2022-08-01T01:14:27;7;6;
55518;PMS5003;41724;51.176;-0.708;2022-08-01T01:17:01;6;6;
55518;PMS5003;41724;51.176;-0.708;2022-08-01T01:19:35;7;7;
55518;PMS5003;41724;51.176;-0.708;2022-08-01T01:22:17;5;5;
55518;PMS5003;41724;51.176;-0.708;2022-08-01T01:24:56;6;6;
55518;PMS5003;41724;51.176;-0.708;2022-08-01T01:27:42;8;8;
55518;PMS5003;41724;51.176;-0.708;2022-08-01T01:30:17;8;8;
55518;PMS5003;41724;51.176;-0.708;2022-08-01T01:32:46;6;6;
55518;PMS5003;41724;51.176;-0.708;2022-08-01T01:35:17;8;7;
55518;PMS5003;41724;51.176;-0.708;2022-08-01T01:37:52;6;6;
55518;PMS5003;41724;51.176;-0.708;2022-08-01T01:40:26;8;8;
55518;PMS5003;41724;51.176;-0.708;2022-08-01T01:42:56;5;5;
55518;PMS5003;41724;51.176;-0.708;2022-08-01T01:45:24;6;6;
55518;PMS5003;41724;51.176;-0.708;2022-08-01T01:47:52;7;7;
55518;PMS5003;41724;51.176;-0.708;2022-08-01T01:50:22;7;7;
55518;PMS5003;41724;51.176;-0.708;2022-08-01T01:52:52;7;6;
55518;PMS5003;41724;51.176;-0.708;2022-08-01T01:55:22;7;7;
55518;PMS5003;41724;51.176;-0.708;2022-08-01T01:57:51;6;6;
55518;PMS5003;41724;51.176;-0.708;2022-08-01T02:00:22;4;4;
55518;PMS5003;41724;51.176;-0.708;2022-08-01T02:02:50;8;6;
55518;PMS5003;41724;51.176;-0.708;2022-08-01T02:05:20;8;8;
55518;PMS5003;41724;51.176;-0.708;2022-08-01T02:07:48;7;7;
55518;PMS5003;41724;51.176;-0.708;2022-08-01T02:10:17;8;8;
55518;PMS5003;41724;51.176;-0.708;2022-08-01T02:12:45;6;6;
55518;PMS5003;41724;51.176;-0.708;2022-08-01T02:15:16;7;7;
55518;PMS5003;41724;51.176;-0.708;2022-08-01T02:17:46;8;8;
55518;PMS5003;41724;51.176;-0.708;2022-08-01T02:20:16;6;6;
55518;PMS5003;41724;51.176;-0.708;2022-08-01T02:22:46;8;7;
55518;PMS5003;41724;51.176;-0.708;2022-08-01T02:25:18;6;6;
55518;PMS5003;41724;51.176;-0.708;2022-08-01T02:27:51;9;7;
55518;PMS5003;41724;51.176;-0.708;2022-08-01T02:30:26;9;9;
55518;PMS5003;41724;51.176;-0.708;2022-08-01T02:33:01;5;5;
55518;PMS5003;41724;51.176;-0.708;2022-08-01T02:35:34;5;5;
55518;PMS5003;41724;51.176;-0.708;2022-08-01T02:38:05;7;7;
55518;PMS5003;41724;51.176;-0.708;2022-08-01T02:40:37;6;6;
55518;PMS5003;41724;51.176;-0.708;2022-08-01T02:43:09;7;7;
55518;PMS5003;41724;51.176;-0.708;2022-08-01T02:45:39;6;6;
55518;PMS5003;41724;51.176;-0.708;2022-08-01T02:48:14;8;7;
55518;PMS5003;41724;51.176;-0.708;2022-08-01T02:50:45;7;7;
55518;PMS5003;41724;51.176;-0.708;2022-08-01T02:53:18;6;6;
55518;PMS5003;41724;51.176;-0.708;2022-08-01T02:55:48;8;8;
55518;PMS5003;41724;51.176;-0.708;2022-08-01T02:58:18;7;7;
55518;PMS5003;41724;51.176;-0.708;2022-08-01T03:00:46;7;7;
55518;PMS5003;41724;51.176;-0.708;2022-08-01T03:03:14;7;7;
55518;PMS5003;41724;51.176;-0.708;2022-08-01T03:05:43;6;6;
55518;PMS5003;41724;51.176;-0.708;2022-08-01T03:08:11;7;7;
55518;PMS5003;41724;51.176;-0.708;2022-08-01T03:10:42;7;7;
55518;PMS5003;41724;51.176;-0.708;2022-08-01T03:13:11;6;6;
55518;PMS5003;41724;51.176;-0.708;2022-08-01T03:15:41;7;7;
55518;PMS5003;41724;51.176;-0.708;2022-08-01T03:18:10;7;7;
55518;PMS5003;41724;51.176;-0.708;2022-08-01T03:20:40;8;8;
55518;PMS5003;41724;51.176;-0.708;2022-08-01T03:23:10;7;7;
55518;PMS5003;41724;51.176;-0.708;2022-08-01T03:25:39;6;6;
55518;PMS5003;41724;51.176;-0.708;2022-08-01T03:28:10;8;8;
55518;PMS5003;41724;51.176;-0.708;2022-08-01T03:30:40;8;8;
55518;PMS5003;41724;51.176;-0.708;2022-08-01T03:33:09;5;5;
55518;PMS5003;41724;51.176;-0.708;2022-08-01T03:35:39;7;7;
55518;PMS5003;41724;51.176;-0.708;2022-08-01T03:38:13;6;6;
55518;PMS5003;41724;51.176;-0.708;2022-08-01T03:40:47;6;6;
55518;PMS5003;41724;51.176;-0.708;2022-08-01T03:43:20;8;8;
55518;PMS5003;41724;51.176;-0.708;2022-08-01T03:45:53;6;6;
55518;PMS5003;41724;51.176;-0.708;2022-08-01T03:48:27;8;8;
55518;PMS5003;41724;51.176;-0.708;2022-08-01T03:50:58;9;9;
55518;PMS5003;41724;51.176;-0.708;2022-08-01T03:53:28;6;6;
55518;PMS5003;41724;51.176;-0.708;2022-08-01T03:55:58;8;8;
55518;PMS5003;41724;51.176;-0.708;2022-08-01T03:58:28;7;7;
55518;PMS5003;41724;51.176;-0.708;2022-08-01T04:00:57;8;8;
55518;PMS5003;41724;51.176;-0.708;2022-08-01T04:03:25;8;8;
55518;PMS5003;41724;51.176;-0.708;2022-08-01T04:05:53;9;9;
55518;PMS5003;41724;51.176;-0.708;2022-08-01T04:08:20;6;6;
55518;PMS5003;41724;51.176;-0.708;2022-08-01T04:10:48;8;8;
55518;PMS5003;41724;51.176;-0.708;2022-08-01T04:13:15;8;8;
55518;PMS5003;41724;51.176;-0.708;2022-08-01T04:15:42;8;8;
55518;PMS5003;41724;51.176;-0.708;2022-08-01T04:18:09;10;9;
55518;PMS5003;41724;51.176;-0.708;2022-08-01T04:20:37;8;7;
55518;PMS5003;41724;51.176;-0.708;2022-08-01T04:23:04;9;8;
55518;PMS5003;41724;51.176;-0.708;2022-08-01T04:25:33;7;7;
55518;PMS5003;41724;51.176;-0.708;2022-08-01T04:28:05;8;7;
55518;PMS5003;41724;51.176;-0.708;2022-08-01T04:30:36;8;8;
55518;PMS5003;41724;51.176;-0.708;2022-08-01T04:33:06;9;7;
55518;PMS5003;41724;51.176;-0.708;2022-08-01T04:35:36;8;8;
55518;PMS5003;41724;51.176;-0.708;2022-08-01T04:38:07;7;7;
55518;PMS5003;41724;51.176;-0.708;2022-08-01T04:40:36;7;7;
55518;PMS5003;41724;51.176;-0.708;2022-08-01T04:43:05;7;7;
55518;PMS5003;41724;51.176;-0.708;2022-08-01T04:45:34;10;9;
55518;PMS5003;41724;51.176;-0.708;2022-08-01T04:48:02;8;8;
55518;PMS5003;41724;51.176;-0.708;2022-08-01T04:50:34;8;8;
55518;PMS5003;41724;51.176;-0.708;2022-08-01T04:53:02;7;7;
55518;PMS5003;41724;51.176;-0.708;2022-08-01T04:55:29;6;6;
55518;PMS5003;41724;51.176;-0.708;2022-08-01T04:57:56;9;9;
55518;PMS5003;41724;51.176;-0.708;2022-08-01T05:00:24;8;8;
55518;PMS5003;41724;51.176;-0.708;2022-08-01T05:02:51;10;9;
55518;PMS5003;41724;51.176;-0.708;2022-08-01T05:05:18;9;9;
55518;PMS5003;41724;51.176;-0.708;2022-08-01T05:07:46;8;8;
55518;PMS5003;41724;51.176;-0.708;2022-08-01T05:10:13;11;10;
55518;PMS5003;41724;51.176;-0.708;2022-08-01T05:12:40;7;7;
55518;PMS5003;41724;51.176;-0.708;2022-08-01T05:15:08;8;8;
55518;PMS5003;41724;51.176;-0.708;2022-08-01T05:17:35;8;8;
55518;PMS5003;41724;51.176;-0.708;2022-08-01T05:20:03;9;8;
55518;PMS5003;41724;51.176;-0.708;2022-08-01T05:22:31;7;7;
55518;PMS5003;41724;51.176;-0.708;2022-08-01T05:24:59;10;10;
55518;PMS5003;41724;51.176;-0.708;2022-08-01T05:27:26;7;7;
55518;PMS5003;41724;51.176;-0.708;2022-08-01T05:29:53;8;8;
55518;PMS5003;41724;51.176;-0.708;2022-08-01T05:32:21;6;6;
55518;PMS5003;41724;51.176;-0.708;2022-08-01T05:34:49;8;8;
55518;PMS5003;41724;51.176;-0.708;2022-08-01T05:37:16;9;8;
55518;PMS5003;41724;51.176;-0.708;2022-08-01T05:39:43;8;8;
55518;PMS5003;41724;51.176;-0.708;2022-08-01T05:42:11;8;8;
55518;PMS5003;41724;51.176;-0.708;2022-08-01T05:44:38;7;7;
55518;PMS5003;41724;51.176;-0.708;2022-08-01T05:47:05;9;9;
55518;PMS5003;41724;51.176;-0.708;2022-08-01T05:49:32;7;7;
55518;PMS5003;41724;51.176;-0.708;2022-08-01T05:52:00;6;6;
55518;PMS5003;41724;51.176;-0.708;2022-08-01T05:54:27;7;7;
55518;PMS5003;41724;51.176;-0.708;2022-08-01T05:56:54;7;7;
55518;PMS5003;41724;51.176;-0.708;2022-08-01T05:59:22;6;6;
55518;PMS5003;41724;51.176;-0.708;2022-08-01T06:01:50;5;5;
55518;PMS5003;41724;51.176;-0.708;2022-08-01T06:04:18;7;7;
55518;PMS5003;41724;51.176;-0.708;2022-08-01T06:06:45;7;5;
55518;PMS5003;41724;51.176;-0.708;2022-08-01T06:09:12;5;5;
55518;PMS5003;41724;51.176;-0.708;2022-08-01T06:11:39;6;6;
55518;PMS5003;41724;51.176;-0.708;2022-08-01T06:14:07;5;5;
55518;PMS5003;41724;51.176;-0.708;2022-08-01T06:16:34;6;6;
55518;PMS5003;41724;51.176;-0.708;2022-08-01T06:19:01;6;6;
55518;PMS5003;41724;51.176;-0.708;2022-08-01T06:21:28;6;6;
55518;PMS5003;41724;51.176;-0.708;2022-08-01T06:23:56;6;6;
55518;PMS5003;41724;51.176;-0.708;2022-08-01T06:26:23;7;7;
55518;PMS5003;41724;51.176;-0.708;2022-08-01T06:28:50;6;6;
55518;PMS5003;41724;51.176;-0.708;2022-08-01T06:31:17;8;6;
55518;PMS5003;41724;51.176;-0.708;2022-08-01T06:33:45;5;5;
55518;PMS5003;41724;51.176;-0.708;2022-08-01T06:36:12;4;4;
55518;PMS5003;41724;51.176;-0.708;2022-08-01T06:38:39;7;5;
55518;PMS5003;41724;51.176;-0.708;2022-08-01T06:41:06;6;6;
55518;PMS5003;41724;51.176;-0.708;2022-08-01T06:43:34;6;6;
55518;PMS5003;41724;51.176;-0.708;2022-08-01T06:46:01;3;3;
55518;PMS5003;41724;51.176;-0.708;2022-08-01T06:48:28;4;4;
55518;PMS5003;41724;51.176;-0.708;2022-08-01T06:50:55;5;4;
55518;PMS5003;41724;51.176;-0.708;2022-08-01T06:53:23;5;5;
55518;PMS5003;41724;51.176;-0.708;2022-08-01T06:55:50;4;4;
55518;PMS5003;41724;51.176;-0.708;2022-08-01T06:58:17;4;4;
55518;PMS5003;41724;51.176;-0.708;2022-08-01T07:00:44;5;5;
55518;PMS5003;41724;51.176;-0.708;2022-08-01T07:03:12;4;4;
55518;PMS5003;41724;51.176;-0.708;2022-08-01T07:05:39;3;3;
55518;PMS5003;41724;51.176;-0.708;2022-08-01T07:08:06;4;4;
55518;PMS5003;41724;51.176;-0.708;2022-08-01T07:10:33;6;5;
55518;PMS5003;41724;51.176;-0.708;2022-08-01T07:13:01;4;4;
55518;PMS5003;41724;51.176;-0.708;2022-08-01T07:15:28;3;3;
55518;PMS5003;41724;51.176;-0.708;2022-08-01T07:17:55;5;3;
55518;PMS5003;41724;51.176;-0.708;2022-08-01T07:20:22;4;4;
55518;PMS5003;41724;51.176;-0.708;2022-08-01T07:22:49;4;4;
55518;PMS5003;41724;51.176;-0.708;2022-08-01T07:25:17;4;4;
55518;PMS5003;41724;51.176;-0.708;2022-08-01T07:27:45;4;4;
55518;PMS5003;41724;51.176;-0.708;2022-08-01T07:30:12;4;4;
55518;PMS5003;41724;51.176;-0.708;2022-08-01T07:32:39;5;5;
55518;PMS5003;41724;51.176;-0.708;2022-08-01T07:35:07;4;4;
55518;PMS5003;41724;51.176;-0.708;2022-08-01T07:37:35;4;4;
55518;PMS5003;41724;51.176;-0.708;2022-08-01T07:40:02;5;5;
55518;PMS5003;41724;51.176;-0.708;2022-08-01T07:42:30;5;5;
55518;PMS5003;41724;51.176;-0.708;2022-08-01T07:44:57;6;4;
55518;PMS5003;41724;51.176;-0.708;2022-08-01T07:47:25;5;5;
55518;PMS5003;41724;51.176;-0.708;2022-08-01T07:49:59;5;5;
55518;PMS5003;41724;51.176;-0.708;2022-08-01T07:52:26;5;4;
55518;PMS5003;41724;51.176;-0.708;2022-08-01T07:54:54;7;5;
55518;PMS5003;41724;51.176;-0.708;2022-08-01T07:57:21;4;4;
55518;PMS5003;41724;51.176;-0.708;2022-08-01T07:59:48;3;3;
55518;PMS5003;41724;51.176;-0.708;2022-08-01T08:02:15;4;4;
55518;PMS5003;41724;51.176;-0.708;2022-08-01T08:04:43;4;4;
55518;PMS5003;41724;51.176;-0.708;2022-08-01T08:07:11;3;3;
55518;PMS5003;41724;51.176;-0.708;2022-08-01T08:09:38;5;5;
55518;PMS5003;41724;51.176;-0.708;2022-08-01T08:12:05;3;3;
55518;PMS5003;41724;51.176;-0.708;2022-08-01T08:14:35;3;3;
55518;PMS5003;41724;51.176;-0.708;2022-08-01T08:17:03;5;3;
55518;PMS5003;41724;51.176;-0.708;2022-08-01T08:19:30;5;5;
55518;PMS5003;41724;51.176;-0.708;2022-08-01T08:21:57;3;3;
55518;PMS5003;41724;51.176;-0.708;2022-08-01T08:24:25;5;5;
55518;PMS5003;41724;51.176;-0.708;2022-08-01T08:26:52;5;5;
55518;PMS5003;41724;51.176;-0.708;2022-08-01T08:29:21;6;6;
55518;PMS5003;41724;51.176;-0.708;2022-08-01T08:31:51;5;5;
55518;PMS5003;41724;51.176;-0.708;2022-08-01T08:34:20;7;7;
55518;PMS5003;41724;51.176;-0.708;2022-08-01T08:36:47;8;7;
55518;PMS5003;41724;51.176;-0.708;2022-08-01T08:39:14;6;6;
55518;PMS5003;41724;51.176;-0.708;2022-08-01T08:41:42;5;5;
55518;PMS5003;41724;51.176;-0.708;2022-08-01T08:44:09;4;4;
55518;PMS5003;41724;51.176;-0.708;2022-08-01T08:46:40;4;4;
55518;PMS5003;41724;51.176;-0.708;2022-08-01T08:49:08;5;5;
55518;PMS5003;41724;51.176;-0.708;2022-08-01T08:51:38;3;3;
55518;PMS5003;41724;51.176;-0.708;2022-08-01T08:54:06;5;5;
55518;PMS5003;41724;51.176;-0.708;2022-08-01T08:56:34;5;5;
55518;PMS5003;41724;51.176;-0.708;2022-08-01T08:59:04;5;5;
55518;PMS5003;41724;51.176;-0.708;2022-08-01T09:01:31;4;4;
55518;PMS5003;41724;51.176;-0.708;2022-08-01T09:03:59;6;5;
55518;PMS5003;41724;51.176;-0.708;2022-08-01T09:06:26;5;5;
55518;PMS5003;41724;51.176;-0.708;2022-08-01T09:08:54;6;5;
55518;PMS5003;41724;51.176;-0.708;2022-08-01T09:11:21;6;6;
55518;PMS5003;41724;51.176;-0.708;2022-08-01T09:14:02;6;6;
55518;PMS5003;41724;51.176;-0.708;2022-08-01T09:16:31;5;5;
55518;PMS5003;41724;51.176;-0.708;2022-08-01T09:19:20;11;6;
55518;PMS5003;41724;51.176;-0.708;2022-08-01T09:21:55;5;5;
55518;PMS5003;41724;51.176;-0.708;2022-08-01T09:24:24;8;7;
55518;PMS5003;41724;51.176;-0.708;2022-08-01T09:26:53;4;4;
55518;PMS5003;41724;51.176;-0.708;2022-08-01T09:29:21;7;5;
55518;PMS5003;41724;51.176;-0.708;2022-08-01T09:31:50;5;5;
55518;PMS5003;41724;51.176;-0.708;2022-08-01T09:34:24;5;5;
55518;PMS5003;41724;51.176;-0.708;2022-08-01T09:36:52;6;6;
55518;PMS5003;41724;51.176;-0.708;2022-08-01T09:39:22;9;7;
55518;PMS5003;41724;51.176;-0.708;2022-08-01T09:41:51;6;6;
55518;PMS5003;41724;51.176;-0.708;2022-08-01T09:44:24;8;8;
55518;PMS5003;41724;51.176;-0.708;2022-08-01T09:47:03;7;7;
55518;PMS5003;41724;51.176;-0.708;2022-08-01T09:49:31;6;6;
55518;PMS5003;41724;51.176;-0.708;2022-08-01T09:52:09;8;8;
55518;PMS5003;41724;51.176;-0.708;2022-08-01T09:54:38;7;7;
55518;PMS5003;41724;51.176;-0.708;2022-08-01T09:57:10;7;7;
55518;PMS5003;41724;51.176;-0.708;2022-08-01T09:59:40;9;8;
55518;PMS5003;41724;51.176;-0.708;2022-08-01T10:02:09;8;8;
55518;PMS5003;41724;51.176;-0.708;2022-08-01T10:04:37;6;6;
55518;PMS5003;41724;51.176;-0.708;2022-08-01T10:07:12;7;7;
55518;PMS5003;41724;51.176;-0.708;2022-08-01T10:09:39;7;7;
55518;PMS5003;41724;51.176;-0.708;2022-08-01T10:12:07;7;7;
55518;PMS5003;41724;51.176;-0.708;2022-08-01T10:14:36;8;8;
55518;PMS5003;41724;51.176;-0.708;2022-08-01T10:17:06;6;6;
55518;PMS5003;41724;51.176;-0.708;2022-08-01T10:19:36;9;8;
55518;PMS5003;41724;51.176;-0.708;2022-08-01T10:22:03;7;7;
55518;PMS5003;41724;51.176;-0.708;2022-08-01T10:24:37;7;7;
55518;PMS5003;41724;51.176;-0.708;2022-08-01T10:27:05;9;9;
55518;PMS5003;41724;51.176;-0.708;2022-08-01T10:29:37;6;6;
55518;PMS5003;41724;51.176;-0.708;2022-08-01T10:32:09;7;7;
55518;PMS5003;41724;51.176;-0.708;2022-08-01T10:34:36;8;8;
55518;PMS5003;41724;51.176;-0.708;2022-08-01T10:37:04;7;7;
55518;PMS5003;41724;51.176;-0.708;2022-08-01T10:39:33;9;9;
55518;PMS5003;41724;51.176;-0.708;2022-08-01T10:42:01;8;8;
55518;PMS5003;41724;51.176;-0.708;2022-08-01T10:44:30;11;9;
55518;PMS5003;41724;51.176;-0.708;2022-08-01T10:47:01;8;8;
55518;PMS5003;41724;51.176;-0.708;2022-08-01T10:49:34;8;7;
55518;PMS5003;41724;51.176;-0.708;2022-08-01T10:52:14;5;5;
55518;PMS5003;41724;51.176;-0.708;2022-08-01T10:54:41;6;6;
55518;PMS5003;41724;51.176;-0.708;2022-08-01T10:57:09;9;6;
55518;PMS5003;41724;51.176;-0.708;2022-08-01T10:59:36;8;6;
55518;PMS5003;41724;51.176;-0.708;2022-08-01T11:02:25;7;7;
55518;PMS5003;41724;51.176;-0.708;2022-08-01T11:04:54;5;5;
55518;PMS5003;41724;51.176;-0.708;2022-08-01T11:07:24;5;5;
55518;PMS5003;41724;51.176;-0.708;2022-08-01T11:10:09;6;6;
55518;PMS5003;41724;51.176;-0.708;2022-08-01T11:12:43;6;6;
55518;PMS5003;41724;51.176;-0.708;2022-08-01T11:15:18;6;6;
55518;PMS5003;41724;51.176;-0.708;2022-08-01T11:17:47;6;6;
55518;PMS5003;41724;51.176;-0.708;2022-08-01T11:20:14;7;7;
55518;PMS5003;41724;51.176;-0.708;2022-08-01T11:23:15;6;6;
55518;PMS5003;41724;51.176;-0.708;2022-08-01T11:26:19;6;6;
55518;PMS5003;41724;51.176;-0.708;2022-08-01T11:29:22;4;4;
55518;PMS5003;41724;51.176;-0.708;2022-08-01T11:31:50;6;6;
55518;PMS5003;41724;51.176;-0.708;2022-08-01T11:34:17;6;6;
55518;PMS5003;41724;51.176;-0.708;2022-08-01T11:36:44;6;6;
55518;PMS5003;41724;51.176;-0.708;2022-08-01T11:39:14;5;5;
55518;PMS5003;41724;51.176;-0.708;2022-08-01T11:41:44;7;7;
55518;PMS5003;41724;51.176;-0.708;2022-08-01T11:44:18;7;6;
55518;PMS5003;41724;51.176;-0.708;2022-08-01T11:46:48;6;6;
55518;PMS5003;41724;51.176;-0.708;2022-08-01T11:49:27;5;5;
55518;PMS5003;41724;51.176;-0.708;2022-08-01T11:51:57;5;5;
55518;PMS5003;41724;51.176;-0.708;2022-08-01T11:54:27;5;5;
55518;PMS5003;41724;51.176;-0.708;2022-08-01T11:56:56;7;7;
55518;PMS5003;41724;51.176;-0.708;2022-08-01T11:59:24;4;4;
55518;PMS5003;41724;51.176;-0.708;2022-08-01T12:01:52;5;5;
55518;PMS5003;41724;51.176;-0.708;2022-08-01T12:04:20;5;5;
55518;PMS5003;41724;51.176;-0.708;2022-08-01T12:06:48;4;4;
55518;PMS5003;41724;51.176;-0.708;2022-08-01T12:09:16;8;7;
55518;PMS5003;41724;51.176;-0.708;2022-08-01T12:11:45;6;4;
55518;PMS5003;41724;51.176;-0.708;2022-08-01T12:14:21;5;5;
55518;PMS5003;41724;51.176;-0.708;2022-08-01T12:16:49;5;5;
55518;PMS5003;41724;51.176;-0.708;2022-08-01T12:19:19;5;4;
55518;PMS5003;41724;51.176;-0.708;2022-08-01T12:22:21;5;5;
55518;PMS5003;41724;51.176;-0.708;2022-08-01T12:24:49;5;5;
55518;PMS5003;41724;51.176;-0.708;2022-08-01T12:27:23;4;4;
55518;PMS5003;41724;51.176;-0.708;2022-08-01T12:29:52;6;6;
55518;PMS5003;41724;51.176;-0.708;2022-08-01T12:32:21;5;5;
55518;PMS5003;41724;51.176;-0.708;2022-08-01T12:34:51;4;4;
55518;PMS5003;41724;51.176;-0.708;2022-08-01T12:37:19;6;6;
55518;PMS5003;41724;51.176;-0.708;2022-08-01T12:39:47;6;6;
55518;PMS5003;41724;51.176;-0.708;2022-08-01T12:42:14;4;4;
55518;PMS5003;41724;51.176;-0.708;2022-08-01T12:44:42;6;5;
55518;PMS5003;41724;51.176;-0.708;2022-08-01T12:47:14;5;5;
55518;PMS5003;41724;51.176;-0.708;2022-08-01T12:49:42;5;5;
55518;PMS5003;41724;51.176;-0.708;2022-08-01T12:52:11;3;3;
55518;PMS5003;41724;51.176;-0.708;2022-08-01T12:55:13;4;4;
55518;PMS5003;41724;51.176;-0.708;2022-08-01T12:57:42;7;5;
55518;PMS5003;41724;51.176;-0.708;2022-08-01T13:00:13;4;4;
55518;PMS5003;41724;51.176;-0.708;2022-08-01T13:02:43;5;5;
55518;PMS5003;41724;51.176;-0.708;2022-08-01T13:05:11;6;6;
55518;PMS5003;41724;51.176;-0.708;2022-08-01T13:07:41;5;5;
55518;PMS5003;41724;51.176;-0.708;2022-08-01T13:10:13;5;4;
55518;PMS5003;41724;51.176;-0.708;2022-08-01T13:12:51;5;4;
55518;PMS5003;41724;51.176;-0.708;2022-08-01T13:15:22;5;5;
55518;PMS5003;41724;51.176;-0.708;2022-08-01T13:17:52;4;4;
55518;PMS5003;41724;51.176;-0.708;2022-08-01T13:20:21;6;6;
55518;PMS5003;41724;51.176;-0.708;2022-08-01T13:22:49;5;5;
55518;PMS5003;41724;51.176;-0.708;2022-08-01T13:25:17;5;5;
55518;PMS5003;41724;51.176;-0.708;2022-08-01T13:27:45;4;4;
55518;PMS5003;41724;51.176;-0.708;2022-08-01T13:30:13;3;3;
55518;PMS5003;41724;51.176;-0.708;2022-08-01T13:32:42;4;4;
55518;PMS5003;41724;51.176;-0.708;2022-08-01T13:35:11;6;6;
55518;PMS5003;41724;51.176;-0.708;2022-08-01T13:37:40;5;5;
55518;PMS5003;41724;51.176;-0.708;2022-08-01T13:40:09;3;3;
55518;PMS5003;41724;51.176;-0.708;2022-08-01T13:42:37;7;5;
55518;PMS5003;41724;51.176;-0.708;2022-08-01T13:45:06;5;4;
55518;PMS5003;41724;51.176;-0.708;2022-08-01T13:47:34;4;4;
55518;PMS5003;41724;51.176;-0.708;2022-08-01T13:50:01;6;4;
55518;PMS5003;41724;51.176;-0.708;2022-08-01T13:52:28;2;2;
55518;PMS5003;41724;51.176;-0.708;2022-08-01T13:54:57;5;5;
55518;PMS5003;41724;51.176;-0.708;2022-08-01T13:57:25;4;4;
55518;PMS5003;41724;51.176;-0.708;2022-08-01T13:59:53;4;4;
55518;PMS5003;41724;51.176;-0.708;2022-08-01T14:02:20;5;5;
55518;PMS5003;41724;51.176;-0.708;2022-08-01T14:04:47;5;5;
55518;PMS5003;41724;51.176;-0.708;2022-08-01T14:07:14;5;5;
55518;PMS5003;41724;51.176;-0.708;2022-08-01T14:09:42;4;4;
55518;PMS5003;41724;51.176;-0.708;2022-08-01T14:12:09;5;5;
55518;PMS5003;41724;51.176;-0.708;2022-08-01T14:14:36;5;5;
55518;PMS5003;41724;51.176;-0.708;2022-08-01T14:17:04;8;6;
55518;PMS5003;41724;51.176;-0.708;2022-08-01T14:19:31;5;5;
55518;PMS5003;41724;51.176;-0.708;2022-08-01T14:21:59;4;4;
55518;PMS5003;41724;51.176;-0.708;2022-08-01T14:24:26;5;5;
55518;PMS5003;41724;51.176;-0.708;2022-08-01T14:26:53;5;5;
55518;PMS5003;41724;51.176;-0.708;2022-08-01T14:29:20;5;5;
55518;PMS5003;41724;51.176;-0.708;2022-08-01T14:31:48;8;7;
55518;PMS5003;41724;51.176;-0.708;2022-08-01T14:34:15;6;6;
55518;PMS5003;41724;51.176;-0.708;2022-08-01T14:36:42;6;6;
55518;PMS5003;41724;51.176;-0.708;2022-08-01T14:39:09;6;6;
55518;PMS5003;41724;51.176;-0.708;2022-08-01T14:41:37;6;6;
55518;PMS5003;41724;51.176;-0.708;2022-08-01T14:44:04;7;6;
55518;PMS5003;41724;51.176;-0.708;2022-08-01T14:46:31;9;7;
55518;PMS5003;41724;51.176;-0.708;2022-08-01T14:48:58;5;5;
55518;PMS5003;41724;51.176;-0.708;2022-08-01T14:51:26;7;7;
55518;PMS5003;41724;51.176;-0.708;2022-08-01T14:53:53;4;4;
55518;PMS5003;41724;51.176;-0.708;2022-08-01T14:56:20;6;6;
55518;PMS5003;41724;51.176;-0.708;2022-08-01T14:58:47;6;6;
55518;PMS5003;41724;51.176;-0.708;2022-08-01T15:01:14;7;7;
55518;PMS5003;41724;51.176;-0.708;2022-08-01T15:03:42;7;7;
55518;PMS5003;41724;51.176;-0.708;2022-08-01T15:06:09;7;7;
55518;PMS5003;41724;51.176;-0.708;2022-08-01T15:08:36;9;9;
55518;PMS5003;41724;51.176;-0.708;2022-08-01T15:11:03;8;6;
55518;PMS5003;41724;51.176;-0.708;2022-08-01T15:13:30;9;8;
55518;PMS5003;41724;51.176;-0.708;2022-08-01T15:15:58;8;6;
55518;PMS5003;41724;51.176;-0.708;2022-08-01T15:18:26;8;8;
55518;PMS5003;41724;51.176;-0.708;2022-08-01T15:20:53;6;6;
55518;PMS5003;41724;51.176;-0.708;2022-08-01T15:23:21;8;8;
55518;PMS5003;41724;51.176;-0.708;2022-08-01T15:25:48;8;8;
55518;PMS5003;41724;51.176;-0.708;2022-08-01T15:28:16;8;8;
55518;PMS5003;41724;51.176;-0.708;2022-08-01T15:30:43;9;7;
55518;PMS5003;41724;51.176;-0.708;2022-08-01T15:33:10;6;6;
55518;PMS5003;41724;51.176;-0.708;2022-08-01T15:35:37;7;7;
55518;PMS5003;41724;51.176;-0.708;2022-08-01T15:38:05;6;6;
55518;PMS5003;41724;51.176;-0.708;2022-08-01T15:40:32;9;9;
55518;PMS5003;41724;51.176;-0.708;2022-08-01T15:42:59;10;7;
55518;PMS5003;41724;51.176;-0.708;2022-08-01T15:45:26;7;7;
55518;PMS5003;41724;51.176;-0.708;2022-08-01T15:47:54;7;7;
55518;PMS5003;41724;51.176;-0.708;2022-08-01T15:50:21;8;8;
55518;PMS5003;41724;51.176;-0.708;2022-08-01T15:52:48;7;7;
55518;PMS5003;41724;51.176;-0.708;2022-08-01T15:55:16;9;9;
55518;PMS5003;41724;51.176;-0.708;2022-08-01T15:57:43;6;6;
55518;PMS5003;41724;51.176;-0.708;2022-08-01T16:00:10;7;7;
55518;PMS5003;41724;51.176;-0.708;2022-08-01T16:02:38;8;8;
55518;PMS5003;41724;51.176;-0.708;2022-08-01T16:05:06;7;7;
55518;PMS5003;41724;51.176;-0.708;2022-08-01T16:07:35;7;7;
55518;PMS5003;41724;51.176;-0.708;2022-08-01T16:10:02;7;7;
55518;PMS5003;41724;51.176;-0.708;2022-08-01T16:12:31;8;8;
55518;PMS5003;41724;51.176;-0.708;2022-08-01T16:14:58;7;7;
55518;PMS5003;41724;51.176;-0.708;2022-08-01T16:17:25;8;8;
55518;PMS5003;41724;51.176;-0.708;2022-08-01T16:19:53;6;6;
55518;PMS5003;41724;51.176;-0.708;2022-08-01T16:22:20;7;7;
55518;PMS5003;41724;51.176;-0.708;2022-08-01T16:24:47;9;9;
55518;PMS5003;41724;51.176;-0.708;2022-08-01T16:27:15;8;8;
55518;PMS5003;41724;51.176;-0.708;2022-08-01T16:29:43;9;9;
55518;PMS5003;41724;51.176;-0.708;2022-08-01T16:32:10;8;8;
55518;PMS5003;41724;51.176;-0.708;2022-08-01T16:34:37;8;8;
55518;PMS5003;41724;51.176;-0.708;2022-08-01T16:37:04;8;8;
55518;PMS5003;41724;51.176;-0.708;2022-08-01T16:39:32;8;8;
55518;PMS5003;41724;51.176;-0.708;2022-08-01T16:41:59;9;9;
55518;PMS5003;41724;51.176;-0.708;2022-08-01T16:44:26;7;7;
55518;PMS5003;41724;51.176;-0.708;2022-08-01T16:46:53;9;9;
55518;PMS5003;41724;51.176;-0.708;2022-08-01T16:49:21;10;8;